sensor_id;sensor_type;location;lat;lon;timestamp;temperature;humidity
3037;DHT22;1528;52.550;13.408;2023-06-14T00:00:44;16.00;17.40
3037;DHT22;1528;52.550;13.408;2023-06-14T00:03:30;16.10;17.40
3037;DHT22;1528;52.550;13.408;2023-06-14T00:06:16;16.00;17.60
3037;DHT22;1528;52.550;13.408;2023-06-14T00:09:02;15.90;17.90
3037;DHT22;1528;52.550;13.408;2023-06-14T00:11:47;15.90;18.00
3037;DHT22;1528;52.550;13.408;2023-06-14T00:14:34;15.80;18.40
3037;DHT22;1528;52.550;13.408;2023-06-14T00:17:20;15.80;18.60
3037;DHT22;1528;52.550;13.408;2023-06-14T00:20:07;15.70;18.80
3037;DHT22;1528;52.550;13.408;2023-06-14T00:22:53;15.60;19.00
3037;DHT22;1528;52.550;13.408;2023-06-14T00:25:39;15.70;18.90
3037;DHT22;1528;52.550;13.408;2023-06-14T00:28:24;15.60;19.20
3037;DHT22;1528;52.550;13.408;2023-06-14T00:31:12;15.50;19.20
3037;DHT22;1528;52.550;13.408;2023-06-14T00:33:57;15.60;19.30
3037;DHT22;1528;52.550;13.408;2023-06-14T00:36:43;15.60;19.60
3037;DHT22;1528;52.550;13.408;2023-06-14T00:39:29;15.50;19.70
3037;DHT22;1528;52.550;13.408;2023-06-14T00:42:23;15.50;19.80
3037;DHT22;1528;52.550;13.408;2023-06-14T00:45:10;15.40;20.20
3037;DHT22;1528;52.550;13.408;2023-06-14T00:47:57;15.50;19.90
3037;DHT22;1528;52.550;13.408;2023-06-14T00:50:44;15.60;19.80
3037;DHT22;1528;52.550;13.408;2023-06-14T00:53:31;15.70;19.70
3037;DHT22;1528;52.550;13.408;2023-06-14T00:56:18;15.60;19.70
3037;DHT22;1528;52.550;13.408;2023-06-14T00:59:05;15.60;20.00
3037;DHT22;1528;52.550;13.408;2023-06-14T01:01:51;15.60;20.00
3037;DHT22;1528;52.550;13.408;2023-06-14T01:04:39;15.50;20.30
3037;DHT22;1528;52.550;13.408;2023-06-14T01:07:33;15.60;20.20
3037;DHT22;1528;52.550;13.408;2023-06-14T01:10:36;15.70;20.00
3037;DHT22;1528;52.550;13.408;2023-06-14T01:13:29;15.60;20.20
3037;DHT22;1528;52.550;13.408;2023-06-14T01:16:18;15.50;20.50
3037;DHT22;1528;52.550;13.408;2023-06-14T01:19:04;15.70;20.50
3037;DHT22;1528;52.550;13.408;2023-06-14T01:21:51;15.70;20.40
3037;DHT22;1528;52.550;13.408;2023-06-14T01:24:38;15.60;20.60
3037;DHT22;1528;52.550;13.408;2023-06-14T01:27:28;15.60;20.60
3037;DHT22;1528;52.550;13.408;2023-06-14T01:30:17;15.50;20.90
3037;DHT22;1528;52.550;13.408;2023-06-14T01:33:03;15.50;21.60
3037;DHT22;1528;52.550;13.408;2023-06-14T01:35:51;15.50;21.10
3037;DHT22;1528;52.550;13.408;2023-06-14T01:38:37;15.40;21.20
3037;DHT22;1528;52.550;13.408;2023-06-14T01:41:24;15.50;21.10
3037;DHT22;1528;52.550;13.408;2023-06-14T01:44:12;15.50;20.90
3037;DHT22;1528;52.550;13.408;2023-06-14T01:46:59;15.50;21.00
3037;DHT22;1528;52.550;13.408;2023-06-14T01:49:46;15.40;21.20
3037;DHT22;1528;52.550;13.408;2023-06-14T01:52:32;15.30;21.60
3037;DHT22;1528;52.550;13.408;2023-06-14T01:55:18;15.10;21.80
3037;DHT22;1528;52.550;13.408;2023-06-14T01:58:07;15.00;22.20
3037;DHT22;1528;52.550;13.408;2023-06-14T02:00:52;15.10;21.80
3037;DHT22;1528;52.550;13.408;2023-06-14T02:03:39;15.00;22.10
3037;DHT22;1528;52.550;13.408;2023-06-14T02:06:26;15.00;22.10
3037;DHT22;1528;52.550;13.408;2023-06-14T02:09:12;14.80;22.70
3037;DHT22;1528;52.550;13.408;2023-06-14T02:11:58;14.90;22.80
3037;DHT22;1528;52.550;13.408;2023-06-14T02:14:45;15.00;22.60
3037;DHT22;1528;52.550;13.408;2023-06-14T02:17:30;14.90;22.50
3037;DHT22;1528;52.550;13.408;2023-06-14T02:20:16;15.00;22.50
3037;DHT22;1528;52.550;13.408;2023-06-14T02:23:02;15.00;22.40
3037;DHT22;1528;52.550;13.408;2023-06-14T02:25:47;14.90;22.70
3037;DHT22;1528;52.550;13.408;2023-06-14T02:28:33;14.90;22.90
3037;DHT22;1528;52.550;13.408;2023-06-14T02:31:20;14.70;23.90
3037;DHT22;1528;52.550;13.408;2023-06-14T02:34:06;14.70;23.40
3037;DHT22;1528;52.550;13.408;2023-06-14T02:36:53;14.60;23.60
3037;DHT22;1528;52.550;13.408;2023-06-14T02:39:39;14.50;23.80
3037;DHT22;1528;52.550;13.408;2023-06-14T02:42:25;14.60;24.10
3037;DHT22;1528;52.550;13.408;2023-06-14T02:45:10;14.50;23.90
3037;DHT22;1528;52.550;13.408;2023-06-14T02:47:57;14.60;23.80
3037;DHT22;1528;52.550;13.408;2023-06-14T02:50:43;14.70;23.70
3037;DHT22;1528;52.550;13.408;2023-06-14T02:53:28;14.80;23.40
3037;DHT22;1528;52.550;13.408;2023-06-14T02:56:14;14.80;23.80
3037;DHT22;1528;52.550;13.408;2023-06-14T02:59:01;14.60;24.50
3037;DHT22;1528;52.550;13.408;2023-06-14T03:01:47;14.50;24.20
3037;DHT22;1528;52.550;13.408;2023-06-14T03:04:34;14.40;24.40
3037;DHT22;1528;52.550;13.408;2023-06-14T03:07:21;14.40;24.50
3037;DHT22;1528;52.550;13.408;2023-06-14T03:10:07;14.60;24.40
3037;DHT22;1528;52.550;13.408;2023-06-14T03:12:54;14.60;24.20
3037;DHT22;1528;52.550;13.408;2023-06-14T03:15:40;14.70;23.80
3037;DHT22;1528;52.550;13.408;2023-06-14T03:18:25;14.60;24.00
3037;DHT22;1528;52.550;13.408;2023-06-14T03:21:12;14.70;23.90
3037;DHT22;1528;52.550;13.408;2023-06-14T03:24:00;14.70;23.90
3037;DHT22;1528;52.550;13.408;2023-06-14T03:26:47;14.80;23.80
3037;DHT22;1528;52.550;13.408;2023-06-14T03:29:32;14.70;24.00
3037;DHT22;1528;52.550;13.408;2023-06-14T03:32:18;14.60;24.50
3037;DHT22;1528;52.550;13.408;2023-06-14T03:35:04;14.70;24.00
3037;DHT22;1528;52.550;13.408;2023-06-14T03:37:51;14.60;24.80
3037;DHT22;1528;52.550;13.408;2023-06-14T03:40:37;14.60;24.20
3037;DHT22;1528;52.550;13.408;2023-06-14T03:43:22;14.70;24.40
3037;DHT22;1528;52.550;13.408;2023-06-14T03:46:08;14.70;24.50
3037;DHT22;1528;52.550;13.408;2023-06-14T03:48:54;14.60;24.60
3037;DHT22;1528;52.550;13.408;2023-06-14T03:51:40;14.60;24.80
3037;DHT22;1528;52.550;13.408;2023-06-14T03:54:27;14.60;24.80
3037;DHT22;1528;52.550;13.408;2023-06-14T03:57:13;14.60;25.30
3037;DHT22;1528;52.550;13.408;2023-06-14T03:59:58;14.80;24.30
3037;DHT22;1528;52.550;13.408;2023-06-14T04:02:44;14.70;24.90
3037;DHT22;1528;52.550;13.408;2023-06-14T04:05:30;14.80;24.30
3037;DHT22;1528;52.550;13.408;2023-06-14T04:08:16;15.00;24.10
3037;DHT22;1528;52.550;13.408;2023-06-14T04:11:05;15.10;24.00
3037;DHT22;1528;52.550;13.408;2023-06-14T04:13:50;15.00;24.60
3037;DHT22;1528;52.550;13.408;2023-06-14T04:16:38;15.00;24.40
3037;DHT22;1528;52.550;13.408;2023-06-14T04:19:23;15.00;24.40
3037;DHT22;1528;52.550;13.408;2023-06-14T04:22:09;15.10;24.20
3037;DHT22;1528;52.550;13.408;2023-06-14T04:24:55;15.20;24.40
3037;DHT22;1528;52.550;13.408;2023-06-14T04:27:43;15.30;24.10
3037;DHT22;1528;52.550;13.408;2023-06-14T04:30:28;15.30;24.10
3037;DHT22;1528;52.550;13.408;2023-06-14T04:33:15;15.40;24.60
3037;DHT22;1528;52.550;13.408;2023-06-14T04:36:03;15.40;24.20
3037;DHT22;1528;52.550;13.408;2023-06-14T04:38:49;15.40;24.10
3037;DHT22;1528;52.550;13.408;2023-06-14T04:41:38;15.50;23.90
3037;DHT22;1528;52.550;13.408;2023-06-14T04:44:25;15.50;24.00
3037;DHT22;1528;52.550;13.408;2023-06-14T04:47:15;15.50;24.00
3037;DHT22;1528;52.550;13.408;2023-06-14T04:50:01;15.50;24.00
3037;DHT22;1528;52.550;13.408;2023-06-14T04:52:48;15.60;23.80
3037;DHT22;1528;52.550;13.408;2023-06-14T04:55:35;15.80;23.40
3037;DHT22;1528;52.550;13.408;2023-06-14T04:58:21;15.90;23.90
3037;DHT22;1528;52.550;13.408;2023-06-14T05:01:08;15.90;23.40
3037;DHT22;1528;52.550;13.408;2023-06-14T05:03:53;16.00;23.40
3037;DHT22;1528;52.550;13.408;2023-06-14T05:06:39;15.90;23.30
3037;DHT22;1528;52.550;13.408;2023-06-14T05:09:25;16.00;23.30
3037;DHT22;1528;52.550;13.408;2023-06-14T05:12:10;16.10;23.10
3037;DHT22;1528;52.550;13.408;2023-06-14T05:14:56;16.00;23.10
3037;DHT22;1528;52.550;13.408;2023-06-14T05:17:45;16.00;23.20
3037;DHT22;1528;52.550;13.408;2023-06-14T05:20:37;16.10;23.10
3037;DHT22;1528;52.550;13.408;2023-06-14T05:23:23;16.10;23.20
3037;DHT22;1528;52.550;13.408;2023-06-14T05:26:08;16.30;23.20
3037;DHT22;1528;52.550;13.408;2023-06-14T05:28:54;16.50;22.80
3037;DHT22;1528;52.550;13.408;2023-06-14T05:31:40;16.70;22.60
3037;DHT22;1528;52.550;13.408;2023-06-14T05:34:27;16.70;22.50
3037;DHT22;1528;52.550;13.408;2023-06-14T05:37:12;17.00;22.70
3037;DHT22;1528;52.550;13.408;2023-06-14T05:39:58;17.10;21.80
3037;DHT22;1528;52.550;13.408;2023-06-14T05:42:44;17.20;21.80
3037;DHT22;1528;52.550;13.408;2023-06-14T05:45:30;17.20;21.60
3037;DHT22;1528;52.550;13.408;2023-06-14T05:48:15;17.30;21.30
3037;DHT22;1528;52.550;13.408;2023-06-14T05:51:02;17.50;20.80
3037;DHT22;1528;52.550;13.408;2023-06-14T05:53:48;17.70;20.50
3037;DHT22;1528;52.550;13.408;2023-06-14T05:56:34;17.90;20.20
3037;DHT22;1528;52.550;13.408;2023-06-14T05:59:20;17.80;20.40
3037;DHT22;1528;52.550;13.408;2023-06-14T06:02:06;17.80;20.30
3037;DHT22;1528;52.550;13.408;2023-06-14T06:04:51;18.10;19.90
3037;DHT22;1528;52.550;13.408;2023-06-14T06:07:39;18.00;19.80
3037;DHT22;1528;52.550;13.408;2023-06-14T06:10:25;18.00;19.80
3037;DHT22;1528;52.550;13.408;2023-06-14T06:13:10;17.90;20.20
3037;DHT22;1528;52.550;13.408;2023-06-14T06:15:56;18.00;20.10
3037;DHT22;1528;52.550;13.408;2023-06-14T06:18:41;18.00;20.00
3037;DHT22;1528;52.550;13.408;2023-06-14T06:21:27;18.20;19.60
3037;DHT22;1528;52.550;13.408;2023-06-14T06:24:14;18.10;19.80
3037;DHT22;1528;52.550;13.408;2023-06-14T06:27:00;18.40;19.40
3037;DHT22;1528;52.550;13.408;2023-06-14T06:29:46;18.30;19.40
3037;DHT22;1528;52.550;13.408;2023-06-14T06:32:32;18.40;19.20
3037;DHT22;1528;52.550;13.408;2023-06-14T06:35:18;18.40;19.30
3037;DHT22;1528;52.550;13.408;2023-06-14T06:38:04;18.60;18.70
3037;DHT22;1528;52.550;13.408;2023-06-14T06:40:51;18.70;18.60
3037;DHT22;1528;52.550;13.408;2023-06-14T06:43:38;18.80;19.00
3037;DHT22;1528;52.550;13.408;2023-06-14T06:46:23;18.70;18.60
3037;DHT22;1528;52.550;13.408;2023-06-14T06:49:09;18.80;18.60
3037;DHT22;1528;52.550;13.408;2023-06-14T06:52:02;19.00;18.10
3037;DHT22;1528;52.550;13.408;2023-06-14T06:54:48;19.00;18.10
3037;DHT22;1528;52.550;13.408;2023-06-14T06:57:36;18.90;18.20
3037;DHT22;1528;52.550;13.408;2023-06-14T07:00:22;18.80;18.60
3037;DHT22;1528;52.550;13.408;2023-06-14T07:03:07;19.00;18.20
3037;DHT22;1528;52.550;13.408;2023-06-14T07:05:53;19.30;17.80
3037;DHT22;1528;52.550;13.408;2023-06-14T07:08:39;19.40;17.50
3037;DHT22;1528;52.550;13.408;2023-06-14T07:11:24;19.70;16.90
3037;DHT22;1528;52.550;13.408;2023-06-14T07:14:11;19.80;16.50
3037;DHT22;1528;52.550;13.408;2023-06-14T07:16:57;19.70;16.60
3037;DHT22;1528;52.550;13.408;2023-06-14T07:19:43;19.80;16.70
3037;DHT22;1528;52.550;13.408;2023-06-14T07:22:28;20.00;16.10
3037;DHT22;1528;52.550;13.408;2023-06-14T07:25:14;20.10;16.10
3037;DHT22;1528;52.550;13.408;2023-06-14T07:28:00;19.90;16.60
3037;DHT22;1528;52.550;13.408;2023-06-14T07:30:47;19.90;16.40
3037;DHT22;1528;52.550;13.408;2023-06-14T07:33:33;20.10;16.30
3037;DHT22;1528;52.550;13.408;2023-06-14T07:36:18;20.00;16.40
3037;DHT22;1528;52.550;13.408;2023-06-14T07:39:04;20.20;16.20
3037;DHT22;1528;52.550;13.408;2023-06-14T07:41:50;20.50;15.70
3037;DHT22;1528;52.550;13.408;2023-06-14T07:44:36;20.70;15.00
3037;DHT22;1528;52.550;13.408;2023-06-14T07:47:23;20.90;14.90
3037;DHT22;1528;52.550;13.408;2023-06-14T07:50:09;21.10;14.40
3037;DHT22;1528;52.550;13.408;2023-06-14T07:52:56;21.20;14.20
3037;DHT22;1528;52.550;13.408;2023-06-14T07:55:41;21.00;14.40
3037;DHT22;1528;52.550;13.408;2023-06-14T07:58:27;21.10;15.00
3037;DHT22;1528;52.550;13.408;2023-06-14T08:01:13;21.10;14.70
3037;DHT22;1528;52.550;13.408;2023-06-14T08:04:00;21.30;14.40
3037;DHT22;1528;52.550;13.408;2023-06-14T08:06:46;21.60;13.60
3037;DHT22;1528;52.550;13.408;2023-06-14T08:09:32;21.70;13.10
3037;DHT22;1528;52.550;13.408;2023-06-14T08:12:17;21.80;13.10
3037;DHT22;1528;52.550;13.408;2023-06-14T08:15:03;21.90;12.80
3037;DHT22;1528;52.550;13.408;2023-06-14T08:17:49;21.90;13.00
3037;DHT22;1528;52.550;13.408;2023-06-14T08:20:36;21.80;12.80
3037;DHT22;1528;52.550;13.408;2023-06-14T08:23:22;21.70;12.70
3037;DHT22;1528;52.550;13.408;2023-06-14T08:26:11;21.70;12.80
3037;DHT22;1528;52.550;13.408;2023-06-14T08:28:56;21.80;12.50
3037;DHT22;1528;52.550;13.408;2023-06-14T08:31:42;21.70;12.30
3037;DHT22;1528;52.550;13.408;2023-06-14T08:34:27;21.90;12.40
3037;DHT22;1528;52.550;13.408;2023-06-14T08:37:14;22.00;12.00
3037;DHT22;1528;52.550;13.408;2023-06-14T08:40:00;21.90;12.00
3037;DHT22;1528;52.550;13.408;2023-06-14T08:42:51;21.90;11.80
3037;DHT22;1528;52.550;13.408;2023-06-14T08:45:37;22.10;11.60
3037;DHT22;1528;52.550;13.408;2023-06-14T08:48:23;22.10;11.10
3037;DHT22;1528;52.550;13.408;2023-06-14T08:51:12;22.00;10.90
3037;DHT22;1528;52.550;13.408;2023-06-14T08:54:02;22.20;11.00
3037;DHT22;1528;52.550;13.408;2023-06-14T08:56:48;22.60;10.30
3037;DHT22;1528;52.550;13.408;2023-06-14T08:59:35;22.80;10.40
3037;DHT22;1528;52.550;13.408;2023-06-14T09:02:23;23.10;9.40
3037;DHT22;1528;52.550;13.408;2023-06-14T09:05:09;23.10;7.80
3037;DHT22;1528;52.550;13.408;2023-06-14T09:07:57;23.20;7.80
3037;DHT22;1528;52.550;13.408;2023-06-14T09:10:46;23.40;7.80
3037;DHT22;1528;52.550;13.408;2023-06-14T09:13:31;23.60;7.70
3037;DHT22;1528;52.550;13.408;2023-06-14T09:16:17;23.80;7.80
3037;DHT22;1528;52.550;13.408;2023-06-14T09:19:03;23.80;8.10
3037;DHT22;1528;52.550;13.408;2023-06-14T09:21:49;24.10;7.60
3037;DHT22;1528;52.550;13.408;2023-06-14T09:24:36;24.20;7.00
3037;DHT22;1528;52.550;13.408;2023-06-14T09:27:25;24.40;6.60
3037;DHT22;1528;52.550;13.408;2023-06-14T09:30:12;24.40;6.50
3037;DHT22;1528;52.550;13.408;2023-06-14T09:32:57;24.40;6.60
3037;DHT22;1528;52.550;13.408;2023-06-14T09:35:45;24.40;6.60
3037;DHT22;1528;52.550;13.408;2023-06-14T09:38:31;24.40;6.00
3037;DHT22;1528;52.550;13.408;2023-06-14T09:41:16;24.40;6.50
3037;DHT22;1528;52.550;13.408;2023-06-14T09:44:05;24.60;6.70
3037;DHT22;1528;52.550;13.408;2023-06-14T09:46:51;24.80;6.50
3037;DHT22;1528;52.550;13.408;2023-06-14T09:49:39;24.90;5.70
3037;DHT22;1528;52.550;13.408;2023-06-14T09:52:24;25.00;5.70
3037;DHT22;1528;52.550;13.408;2023-06-14T09:55:12;25.10;5.90
3037;DHT22;1528;52.550;13.408;2023-06-14T09:58:00;25.30;4.70
3037;DHT22;1528;52.550;13.408;2023-06-14T10:00:51;25.60;4.80
3037;DHT22;1528;52.550;13.408;2023-06-14T10:03:38;25.50;4.40
3037;DHT22;1528;52.550;13.408;2023-06-14T10:06:25;25.50;4.50
3037;DHT22;1528;52.550;13.408;2023-06-14T10:09:11;25.50;4.70
3037;DHT22;1528;52.550;13.408;2023-06-14T10:11:58;25.50;4.20
3037;DHT22;1528;52.550;13.408;2023-06-14T10:14:43;25.30;4.70
3037;DHT22;1528;52.550;13.408;2023-06-14T10:17:38;25.30;4.00
3037;DHT22;1528;52.550;13.408;2023-06-14T10:20:30;24.80;4.60
3037;DHT22;1528;52.550;13.408;2023-06-14T10:23:21;25.00;4.90
3037;DHT22;1528;52.550;13.408;2023-06-14T10:26:07;25.00;4.50
3037;DHT22;1528;52.550;13.408;2023-06-14T10:28:58;24.80;5.30
3037;DHT22;1528;52.550;13.408;2023-06-14T10:31:44;25.00;4.70
3037;DHT22;1528;52.550;13.408;2023-06-14T10:34:32;25.10;5.00
3037;DHT22;1528;52.550;13.408;2023-06-14T10:37:17;25.50;4.10
3037;DHT22;1528;52.550;13.408;2023-06-14T10:40:04;25.80;3.60
3037;DHT22;1528;52.550;13.408;2023-06-14T10:42:51;26.10;2.70
3037;DHT22;1528;52.550;13.408;2023-06-14T10:45:37;26.20;2.80
3037;DHT22;1528;52.550;13.408;2023-06-14T10:48:43;26.20;2.80
3037;DHT22;1528;52.550;13.408;2023-06-14T10:51:30;26.50;2.90
3037;DHT22;1528;52.550;13.408;2023-06-14T10:54:29;26.70;2.40
3037;DHT22;1528;52.550;13.408;2023-06-14T10:57:15;26.80;1.90
3037;DHT22;1528;52.550;13.408;2023-06-14T11:00:01;27.00;1.00
3037;DHT22;1528;52.550;13.408;2023-06-14T11:06:22;27.30;1.00
3037;DHT22;1528;52.550;13.408;2023-06-14T11:09:25;27.50;1.00
3037;DHT22;1528;52.550;13.408;2023-06-14T11:12:18;27.60;1.00
3037;DHT22;1528;52.550;13.408;2023-06-14T11:15:06;27.70;1.00
3037;DHT22;1528;52.550;13.408;2023-06-14T11:17:52;27.80;1.00
3037;DHT22;1528;52.550;13.408;2023-06-14T11:20:39;28.00;1.00
3037;DHT22;1528;52.550;13.408;2023-06-14T11:23:25;28.10;1.00
3037;DHT22;1528;52.550;13.408;2023-06-14T11:26:12;28.30;1.00
3037;DHT22;1528;52.550;13.408;2023-06-14T11:28:58;28.50;1.00
3037;DHT22;1528;52.550;13.408;2023-06-14T11:31:44;28.80;1.00
3037;DHT22;1528;52.550;13.408;2023-06-14T11:34:30;29.50;1.00
3037;DHT22;1528;52.550;13.408;2023-06-14T11:37:16;29.90;1.00
3037;DHT22;1528;52.550;13.408;2023-06-14T11:40:01;30.30;1.00
3037;DHT22;1528;52.550;13.408;2023-06-14T11:42:49;30.40;1.00
3037;DHT22;1528;52.550;13.408;2023-06-14T11:45:34;30.50;1.00
3037;DHT22;1528;52.550;13.408;2023-06-14T11:48:21;30.50;1.00
3037;DHT22;1528;52.550;13.408;2023-06-14T11:51:07;30.70;1.00
3037;DHT22;1528;52.550;13.408;2023-06-14T11:53:52;31.00;1.00
3037;DHT22;1528;52.550;13.408;2023-06-14T11:56:38;31.50;1.00
3037;DHT22;1528;52.550;13.408;2023-06-14T11:59:26;32.90;1.00
3037;DHT22;1528;52.550;13.408;2023-06-14T12:02:14;34.80;1.00
3037;DHT22;1528;52.550;13.408;2023-06-14T12:05:04;35.70;1.00
3037;DHT22;1528;52.550;13.408;2023-06-14T12:07:50;36.40;1.00
3037;DHT22;1528;52.550;13.408;2023-06-14T12:10:41;37.30;1.00
3037;DHT22;1528;52.550;13.408;2023-06-14T12:13:27;38.40;1.00
3037;DHT22;1528;52.550;13.408;2023-06-14T12:16:14;39.10;1.00
3037;DHT22;1528;52.550;13.408;2023-06-14T12:19:01;38.60;1.00
3037;DHT22;1528;52.550;13.408;2023-06-14T12:21:52;38.60;1.00
3037;DHT22;1528;52.550;13.408;2023-06-14T12:24:39;39.70;1.00
3037;DHT22;1528;52.550;13.408;2023-06-14T12:27:25;40.90;1.00
3037;DHT22;1528;52.550;13.408;2023-06-14T12:30:13;43.20;1.00
3037;DHT22;1528;52.550;13.408;2023-06-14T12:33:01;45.70;1.00
3037;DHT22;1528;52.550;13.408;2023-06-14T12:35:46;47.70;1.00
3037;DHT22;1528;52.550;13.408;2023-06-14T12:38:32;47.70;1.00
3037;DHT22;1528;52.550;13.408;2023-06-14T12:41:18;49.20;1.00
3037;DHT22;1528;52.550;13.408;2023-06-14T12:44:05;50.70;1.00
3037;DHT22;1528;52.550;13.408;2023-06-14T12:46:51;52.00;1.00
3037;DHT22;1528;52.550;13.408;2023-06-14T12:49:39;52.80;1.00
3037;DHT22;1528;52.550;13.408;2023-06-14T12:52:26;51.10;1.00
3037;DHT22;1528;52.550;13.408;2023-06-14T12:55:12;46.80;1.00
3037;DHT22;1528;52.550;13.408;2023-06-14T12:57:58;44.20;1.00
3037;DHT22;1528;52.550;13.408;2023-06-14T13:00:44;42.10;1.00
3037;DHT22;1528;52.550;13.408;2023-06-14T13:03:29;40.90;1.00
3037;DHT22;1528;52.550;13.408;2023-06-14T13:06:16;39.80;1.00
3037;DHT22;1528;52.550;13.408;2023-06-14T13:09:02;38.30;1.00
3037;DHT22;1528;52.550;13.408;2023-06-14T13:11:48;37.00;1.00
3037;DHT22;1528;52.550;13.408;2023-06-14T13:14:34;36.40;1.00
3037;DHT22;1528;52.550;13.408;2023-06-14T13:17:20;37.10;1.00
3037;DHT22;1528;52.550;13.408;2023-06-14T13:20:06;38.90;1.00
3037;DHT22;1528;52.550;13.408;2023-06-14T13:22:53;41.70;1.00
3037;DHT22;1528;52.550;13.408;2023-06-14T13:25:39;43.20;1.00
3037;DHT22;1528;52.550;13.408;2023-06-14T13:28:25;43.60;1.00
3037;DHT22;1528;52.550;13.408;2023-06-14T13:31:10;43.80;1.00
3037;DHT22;1528;52.550;13.408;2023-06-14T13:33:56;42.60;1.00
3037;DHT22;1528;52.550;13.408;2023-06-14T13:36:42;41.40;1.00
3037;DHT22;1528;52.550;13.408;2023-06-14T13:39:29;40.10;1.00
3037;DHT22;1528;52.550;13.408;2023-06-14T13:42:14;39.70;1.00
3037;DHT22;1528;52.550;13.408;2023-06-14T13:45:00;41.20;1.00
3037;DHT22;1528;52.550;13.408;2023-06-14T13:47:45;44.90;1.00
3037;DHT22;1528;52.550;13.408;2023-06-14T13:50:32;47.30;1.00
3037;DHT22;1528;52.550;13.408;2023-06-14T13:53:18;48.90;1.00
3037;DHT22;1528;52.550;13.408;2023-06-14T13:56:05;50.10;1.00
3037;DHT22;1528;52.550;13.408;2023-06-14T13:58:51;48.30;1.00
3037;DHT22;1528;52.550;13.408;2023-06-14T14:01:36;47.30;1.00
3037;DHT22;1528;52.550;13.408;2023-06-14T14:04:22;46.70;1.00
3037;DHT22;1528;52.550;13.408;2023-06-14T14:07:08;47.40;1.00
3037;DHT22;1528;52.550;13.408;2023-06-14T14:09:54;46.50;1.00
3037;DHT22;1528;52.550;13.408;2023-06-14T14:12:43;44.10;1.00
3037;DHT22;1528;52.550;13.408;2023-06-14T14:15:29;41.70;1.00
3037;DHT22;1528;52.550;13.408;2023-06-14T14:18:15;39.60;1.00
3037;DHT22;1528;52.550;13.408;2023-06-14T14:21:00;38.50;1.00
3037;DHT22;1528;52.550;13.408;2023-06-14T14:23:46;36.40;1.00
3037;DHT22;1528;52.550;13.408;2023-06-14T14:26:33;34.90;1.00
3037;DHT22;1528;52.550;13.408;2023-06-14T14:29:20;34.40;1.00
3037;DHT22;1528;52.550;13.408;2023-06-14T14:32:07;34.50;1.00
3037;DHT22;1528;52.550;13.408;2023-06-14T14:34:57;34.40;1.00
3037;DHT22;1528;52.550;13.408;2023-06-14T14:37:44;33.50;1.00
3037;DHT22;1528;52.550;13.408;2023-06-14T14:40:29;32.10;1.00
3037;DHT22;1528;52.550;13.408;2023-06-14T14:43:15;31.50;1.00
3037;DHT22;1528;52.550;13.408;2023-06-14T14:46:02;30.90;1.00
3037;DHT22;1528;52.550;13.408;2023-06-14T14:48:47;30.20;1.00
3037;DHT22;1528;52.550;13.408;2023-06-14T14:51:33;29.70;1.00
3037;DHT22;1528;52.550;13.408;2023-06-14T14:54:19;29.10;1.00
3037;DHT22;1528;52.550;13.408;2023-06-14T14:57:05;28.70;1.00
3037;DHT22;1528;52.550;13.408;2023-06-14T14:59:51;28.40;1.00
3037;DHT22;1528;52.550;13.408;2023-06-14T15:02:38;28.20;1.00
3037;DHT22;1528;52.550;13.408;2023-06-14T15:05:24;28.00;1.00
3037;DHT22;1528;52.550;13.408;2023-06-14T15:08:09;27.60;1.00
3037;DHT22;1528;52.550;13.408;2023-06-14T15:10:56;27.40;1.00
3037;DHT22;1528;52.550;13.408;2023-06-14T15:13:41;27.10;1.00
3037;DHT22;1528;52.550;13.408;2023-06-14T15:16:27;26.80;1.00
3037;DHT22;1528;52.550;13.408;2023-06-14T15:19:14;26.50;1.00
3037;DHT22;1528;52.550;13.408;2023-06-14T15:22:00;26.30;1.00
3037;DHT22;1528;52.550;13.408;2023-06-14T15:24:45;26.20;1.00
3037;DHT22;1528;52.550;13.408;2023-06-14T15:27:31;26.20;1.00
3037;DHT22;1528;52.550;13.408;2023-06-14T15:30:16;26.00;1.00
3037;DHT22;1528;52.550;13.408;2023-06-14T15:33:02;26.00;1.00
3037;DHT22;1528;52.550;13.408;2023-06-14T15:35:49;26.10;1.00
3037;DHT22;1528;52.550;13.408;2023-06-14T15:38:35;26.20;1.00
3037;DHT22;1528;52.550;13.408;2023-06-14T15:41:20;26.50;1.00
3037;DHT22;1528;52.550;13.408;2023-06-14T15:44:06;27.10;1.00
3037;DHT22;1528;52.550;13.408;2023-06-14T15:46:52;27.50;1.00
3037;DHT22;1528;52.550;13.408;2023-06-14T15:49:38;27.70;1.00
3037;DHT22;1528;52.550;13.408;2023-06-14T15:52:25;27.50;1.00
3037;DHT22;1528;52.550;13.408;2023-06-14T15:55:10;27.40;1.00
3037;DHT22;1528;52.550;13.408;2023-06-14T15:57:56;27.10;1.00
3037;DHT22;1528;52.550;13.408;2023-06-14T16:00:42;27.00;1.00
3037;DHT22;1528;52.550;13.408;2023-06-14T16:03:27;26.80;1.00
3037;DHT22;1528;52.550;13.408;2023-06-14T16:06:13;26.60;1.00
3037;DHT22;1528;52.550;13.408;2023-06-14T16:09:00;26.40;1.00
3037;DHT22;1528;52.550;13.408;2023-06-14T16:11:47;26.30;1.00
3037;DHT22;1528;52.550;13.408;2023-06-14T16:14:33;26.20;1.00
3037;DHT22;1528;52.550;13.408;2023-06-14T16:17:18;26.00;1.00
3037;DHT22;1528;52.550;13.408;2023-06-14T16:20:05;25.90;1.00
3037;DHT22;1528;52.550;13.408;2023-06-14T16:22:51;25.80;1.00
3037;DHT22;1528;52.550;13.408;2023-06-14T16:25:38;25.80;1.00
3037;DHT22;1528;52.550;13.408;2023-06-14T16:28:23;25.60;1.00
3037;DHT22;1528;52.550;13.408;2023-06-14T16:31:09;25.60;1.00
3037;DHT22;1528;52.550;13.408;2023-06-14T16:33:55;25.40;1.00
3037;DHT22;1528;52.550;13.408;2023-06-14T16:36:40;25.40;1.00
3037;DHT22;1528;52.550;13.408;2023-06-14T16:39:26;25.40;1.00
3037;DHT22;1528;52.550;13.408;2023-06-14T16:42:13;25.30;1.00
3037;DHT22;1528;52.550;13.408;2023-06-14T16:44:59;25.20;1.00
3037;DHT22;1528;52.550;13.408;2023-06-14T16:47:44;25.10;1.00
3037;DHT22;1528;52.550;13.408;2023-06-14T16:50:30;25.10;1.00
3037;DHT22;1528;52.550;13.408;2023-06-14T16:53:16;25.00;1.00
3037;DHT22;1528;52.550;13.408;2023-06-14T16:56:01;24.90;1.00
3037;DHT22;1528;52.550;13.408;2023-06-14T16:58:49;24.90;1.00
3037;DHT22;1528;52.550;13.408;2023-06-14T17:01:34;24.80;1.00
3037;DHT22;1528;52.550;13.408;2023-06-14T17:04:21;24.70;1.00
3037;DHT22;1528;52.550;13.408;2023-06-14T17:07:07;24.50;1.00
3037;DHT22;1528;52.550;13.408;2023-06-14T17:09:52;24.40;1.00
3037;DHT22;1528;52.550;13.408;2023-06-14T17:12:38;24.30;1.00
3037;DHT22;1528;52.550;13.408;2023-06-14T17:15:26;24.30;1.00
3037;DHT22;1528;52.550;13.408;2023-06-14T17:18:12;24.20;1.00
3037;DHT22;1528;52.550;13.408;2023-06-14T17:20:57;24.20;1.00
3037;DHT22;1528;52.550;13.408;2023-06-14T17:23:43;24.20;1.00
3037;DHT22;1528;52.550;13.408;2023-06-14T17:26:28;24.10;1.00
3037;DHT22;1528;52.550;13.408;2023-06-14T17:29:16;24.00;1.00
3037;DHT22;1528;52.550;13.408;2023-06-14T17:32:04;23.90;1.00
3037;DHT22;1528;52.550;13.408;2023-06-14T17:34:50;23.80;1.00
3037;DHT22;1528;52.550;13.408;2023-06-14T17:37:35;23.70;1.00
3037;DHT22;1528;52.550;13.408;2023-06-14T17:40:21;23.70;1.00
3037;DHT22;1528;52.550;13.408;2023-06-14T17:43:06;23.60;1.00
3037;DHT22;1528;52.550;13.408;2023-06-14T17:45:52;23.60;1.00
3037;DHT22;1528;52.550;13.408;2023-06-14T17:48:39;23.70;1.00
3037;DHT22;1528;52.550;13.408;2023-06-14T17:51:25;23.60;1.00
3037;DHT22;1528;52.550;13.408;2023-06-14T17:54:10;23.60;1.00
3037;DHT22;1528;52.550;13.408;2023-06-14T17:56:56;23.50;1.00
3037;DHT22;1528;52.550;13.408;2023-06-14T17:59:42;23.60;1.00
3037;DHT22;1528;52.550;13.408;2023-06-14T18:02:27;23.30;1.20